createdAt,value
2022-07-29T00:02:29.444Z,65.54
2022-07-29T00:04:56.301Z,65.56
2022-07-29T00:07:23.152Z,65.78
2022-07-29T00:09:51.097Z,65.23
2022-07-29T00:12:25.320Z,65.52
2022-07-29T00:14:54.450Z,65.77
2022-07-29T00:17:21.298Z,65.02
2022-07-29T00:19:48.144Z,65.90
2022-07-29T00:22:15.109Z,65.64
2022-07-29T00:24:42.008Z,66.45
2022-07-29T00:27:08.869Z,65.68
2022-07-29T00:29:35.789Z,65.54
2022-07-29T00:32:03.597Z,65.32
2022-07-29T00:34:49.075Z,66.03
2022-07-29T00:37:15.933Z,66.18
2022-07-29T00:39:42.787Z,66.09
2022-07-29T00:42:10.730Z,66.26
2022-07-29T00:44:42.384Z,65.84
2022-07-29T00:47:10.645Z,65.65
2022-07-29T00:49:39.467Z,66.12
2022-07-29T00:52:07.022Z,66.24
2022-07-29T00:54:35.325Z,66.25
2022-07-29T00:57:08.912Z,67.48
2022-07-29T00:59:36.282Z,67.05
2022-07-29T01:02:04.612Z,67.77
2022-07-29T01:04:32.301Z,68.43
2022-07-29T01:07:01.729Z,67.60
2022-07-29T01:09:42.825Z,68.39
2022-07-29T01:12:19.491Z,68.39
2022-07-29T01:14:48.816Z,68.20
2022-07-29T01:17:27.160Z,67.39
2022-07-29T01:20:02.696Z,67.98
2022-07-29T01:22:36.371Z,67.61
2022-07-29T01:25:40.205Z,68.74
2022-07-29T01:28:33.189Z,68.04
2022-07-29T01:31:03.773Z,68.58
2022-07-29T01:33:50.306Z,68.79
2022-07-29T01:36:28.519Z,68.86
2022-07-29T01:39:07.276Z,68.59
2022-07-29T01:41:37.312Z,67.96
2022-07-29T01:44:18.791Z,68.41
2022-07-29T01:46:53.590Z,68.73
2022-07-29T01:49:28.375Z,68.79
2022-07-29T01:52:06.881Z,68.74
2022-07-29T01:54:40.346Z,69.18
2022-07-29T01:57:13.867Z,69.07
2022-07-29T01:59:42.821Z,69.17
2022-07-29T02:02:13.824Z,69.41
2022-07-29T02:04:42.870Z,70.01
2022-07-29T02:07:14.218Z,69.86
2022-07-29T02:09:42.978Z,69.87
2022-07-29T02:12:11.933Z,69.74
2022-07-29T02:14:44.988Z,71.64
2022-07-29T02:17:13.395Z,72.59
2022-07-29T02:19:42.104Z,73.69
2022-07-29T02:22:12.414Z,73.79
2022-07-29T02:24:41.519Z,72.10
2022-07-29T02:27:09.543Z,71.33
2022-07-29T02:29:38.341Z,71.54
2022-07-29T02:32:06.803Z,71.38
2022-07-29T02:34:35.359Z,72.21
2022-07-29T02:37:03.731Z,73.43
2022-07-29T02:39:31.281Z,72.87
2022-07-29T02:42:06.914Z,72.18
2022-07-29T02:44:37.047Z,72.13
2022-07-29T02:47:42.888Z,72.36
2022-07-29T02:50:16.626Z,72.70
2022-07-29T02:52:53.535Z,72.65
2022-07-29T02:55:30.961Z,73.18
2022-07-29T02:58:23.684Z,73.75
2022-07-29T03:00:52.844Z,72.44
2022-07-29T03:03:21.235Z,73.65
2022-07-29T03:05:48.181Z,73.74
2022-07-29T03:08:17.058Z,73.25
2022-07-29T03:10:48.301Z,73.15
2022-07-29T03:13:16.836Z,73.96
2022-07-29T03:15:45.924Z,74.01
2022-07-29T03:18:13.751Z,73.42
2022-07-29T03:20:41.617Z,76.43
2022-07-29T03:23:09.708Z,74.27
2022-07-29T03:25:36.962Z,73.69
2022-07-29T03:28:04.216Z,74.90
2022-07-29T03:30:31.842Z,75.21
2022-07-29T03:32:59.135Z,73.71
2022-07-29T03:35:26.075Z,73.79
2022-07-29T03:37:52.937Z,74.31
2022-07-29T03:40:28.703Z,74.55
2022-07-29T03:42:56.937Z,74.42
2022-07-29T03:45:26.004Z,76.67
2022-07-29T03:48:01.250Z,73.97
2022-07-29T03:50:29.968Z,74.46
2022-07-29T03:52:56.944Z,74.48
2022-07-29T03:55:24.574Z,76.05
2022-07-29T03:57:52.416Z,75.58
2022-07-29T04:00:20.585Z,75.41
2022-07-29T04:02:49.765Z,74.93
2022-07-29T04:05:17.467Z,74.60
2022-07-29T04:07:49.164Z,74.79
2022-07-29T04:10:18.033Z,75.15
2022-07-29T04:12:57.596Z,75.04
2022-07-29T04:15:24.467Z,74.92
2022-07-29T04:17:51.271Z,75.60
2022-07-29T04:20:18.458Z,76.32
2022-07-29T04:22:45.270Z,75.20
2022-07-29T04:25:12.167Z,76.64
2022-07-29T04:27:58.940Z,76.88
2022-07-29T04:30:25.965Z,76.17
2022-07-29T04:32:53.139Z,76.74
2022-07-29T04:35:20.903Z,77.87
2022-07-29T04:37:47.768Z,77.31
2022-07-29T04:40:14.718Z,77.40
2022-07-29T04:42:46.462Z,77.87
2022-07-29T04:45:14.636Z,77.45
2022-07-29T04:47:42.074Z,77.37
2022-07-29T04:50:10.393Z,78.00
2022-07-29T04:52:37.797Z,78.23
2022-07-29T04:55:06.146Z,78.10
2022-07-29T04:57:33.449Z,78.55
2022-07-29T05:00:00.273Z,78.98
2022-07-29T05:02:27.197Z,79.08
2022-07-29T05:04:54.135Z,79.89
2022-07-29T05:07:20.978Z,79.71
2022-07-29T05:09:48.304Z,79.74
2022-07-29T05:12:15.277Z,79.96
2022-07-29T05:14:42.131Z,80.62
2022-07-29T05:17:09.171Z,79.96
2022-07-29T05:19:39.573Z,80.23
2022-07-29T05:22:06.664Z,81.21
2022-07-29T05:24:33.487Z,81.42
2022-07-29T05:27:00.320Z,81.97
2022-07-29T05:29:44.993Z,82.02
2022-07-29T05:32:13.326Z,82.23
2022-07-29T05:34:50.712Z,82.79
2022-07-29T05:37:19.574Z,82.71
2022-07-29T05:39:47.159Z,82.50
2022-07-29T05:42:16.038Z,83.35
2022-07-29T05:44:42.912Z,83.06
2022-07-29T05:47:09.802Z,83.14
2022-07-29T05:49:36.666Z,82.98
2022-07-29T05:52:04.078Z,83.19
2022-07-29T05:54:31.009Z,83.57
2022-07-29T05:56:58.026Z,83.50
2022-07-29T05:59:29.852Z,83.95
2022-07-29T06:01:58.317Z,83.37
2022-07-29T06:04:25.503Z,84.02
2022-07-29T06:06:52.387Z,84.16
2022-07-29T06:09:19.255Z,83.35
2022-07-29T06:11:47.977Z,83.72
2022-07-29T06:14:15.159Z,83.33
2022-07-29T06:16:42.719Z,83.32
2022-07-29T06:19:10.132Z,84.05
2022-07-29T06:21:38.670Z,83.38
2022-07-29T06:24:09.410Z,83.59
2022-07-29T06:26:39.596Z,83.21
2022-07-29T06:29:07.950Z,83.24
2022-07-29T06:31:35.005Z,83.29
2022-07-29T06:34:01.856Z,83.16
2022-07-29T06:36:30.496Z,83.93
2022-07-29T06:38:57.509Z,84.22
2022-07-29T06:41:24.910Z,82.86
2022-07-29T06:43:55.218Z,82.42
2022-07-29T06:46:23.202Z,83.22
2022-07-29T06:48:50.599Z,82.85
2022-07-29T06:51:22.407Z,83.29
2022-07-29T06:53:59.869Z,82.95
2022-07-29T06:56:31.796Z,83.74
2022-07-29T06:58:58.854Z,82.72
2022-07-29T07:01:25.832Z,83.63
2022-07-29T07:03:52.695Z,82.82
2022-07-29T07:06:19.514Z,82.10
2022-07-29T07:08:46.357Z,82.03
2022-07-29T07:11:13.169Z,81.34
2022-07-29T07:13:39.997Z,82.54
2022-07-29T07:16:10.587Z,81.55
2022-07-29T07:18:37.497Z,79.92
2022-07-29T07:21:06.100Z,79.67
2022-07-29T07:23:32.929Z,78.62
2022-07-29T07:25:59.822Z,77.45
2022-07-29T07:28:26.888Z,74.90
2022-07-29T07:30:53.751Z,75.47
2022-07-29T07:33:20.849Z,73.14
2022-07-29T07:35:48.447Z,72.51
2022-07-29T07:38:15.340Z,72.66
2022-07-29T07:40:42.786Z,72.23
2022-07-29T07:43:09.626Z,74.56
2022-07-29T07:45:38.545Z,72.11
2022-07-29T07:48:06.107Z,71.05
2022-07-29T07:50:33.524Z,70.08
2022-07-29T07:53:00.704Z,70.08
2022-07-29T07:55:28.401Z,70.76
2022-07-29T07:57:55.830Z,70.96
2022-07-29T08:00:23.819Z,71.66
2022-07-29T08:02:51.610Z,71.73
2022-07-29T08:05:19.409Z,71.81
2022-07-29T08:07:47.927Z,71.34
2022-07-29T08:10:36.781Z,70.33
2022-07-29T08:13:11.992Z,70.40
2022-07-29T08:15:41.836Z,70.46
2022-07-29T08:18:09.073Z,70.15
2022-07-29T08:20:37.218Z,70.11
2022-07-29T08:23:05.531Z,69.07
2022-07-29T08:25:32.742Z,68.63
2022-07-29T08:28:01.492Z,65.39
2022-07-29T08:30:28.645Z,65.21
2022-07-29T08:32:56.005Z,64.17
2022-07-29T08:35:24.326Z,64.94
2022-07-29T08:37:53.486Z,65.23
2022-07-29T08:40:30.479Z,65.36
2022-07-29T08:42:59.091Z,64.52
2022-07-29T08:45:26.447Z,63.70
2022-07-29T08:47:54.567Z,63.49
2022-07-29T08:50:21.386Z,63.97
2022-07-29T08:52:50.556Z,63.34
2022-07-29T08:55:21.499Z,63.73
2022-07-29T08:57:54.114Z,63.77
2022-07-29T09:00:26.356Z,64.02
2022-07-29T09:02:59.053Z,65.52
2022-07-29T09:05:27.669Z,64.11
2022-07-29T09:07:55.015Z,64.94
2022-07-29T09:10:23.777Z,64.67
2022-07-29T09:12:51.069Z,62.38
2022-07-29T09:15:19.008Z,62.00
2022-07-29T09:17:50.402Z,61.34
2022-07-29T09:20:19.726Z,60.66
2022-07-29T09:22:51.920Z,61.21
2022-07-29T09:25:34.644Z,58.91
2022-07-29T09:28:08.933Z,59.60
2022-07-29T09:30:36.684Z,57.63
2022-07-29T09:33:04.824Z,58.84
2022-07-29T09:35:32.205Z,58.40
2022-07-29T09:38:10.595Z,55.96
2022-07-29T09:40:37.440Z,55.93
2022-07-29T09:43:14.521Z,55.70
2022-07-29T09:45:41.825Z,56.22
2022-07-29T09:48:20.521Z,55.92
2022-07-29T09:50:50.630Z,53.30
2022-07-29T09:53:38.544Z,56.72
2022-07-29T09:56:06.092Z,56.24
2022-07-29T09:58:35.946Z,55.50
2022-07-29T10:01:03.437Z,54.65
2022-07-29T10:03:30.467Z,56.11
2022-07-29T10:06:11.643Z,53.65
2022-07-29T10:08:39.325Z,53.69
2022-07-29T10:11:17.900Z,53.46
2022-07-29T10:13:47.708Z,52.92
2022-07-29T10:16:16.624Z,54.12
2022-07-29T10:18:44.889Z,50.74
2022-07-29T10:21:22.577Z,52.45
2022-07-29T10:24:01.315Z,51.92
2022-07-29T10:26:30.182Z,50.77
2022-07-29T10:28:57.807Z,52.08
2022-07-29T10:31:36.064Z,51.13
2022-07-29T10:34:23.300Z,52.72
2022-07-29T10:37:03.397Z,51.90
2022-07-29T10:40:31.169Z,52.33
2022-07-29T10:43:11.123Z,52.16
2022-07-29T10:45:42.750Z,51.00
2022-07-29T10:48:10.528Z,52.25
2022-07-29T10:50:57.884Z,50.93
2022-07-29T10:53:25.504Z,49.87
2022-07-29T10:55:54.053Z,49.35
2022-07-29T10:58:25.123Z,48.89
2022-07-29T11:00:53.772Z,50.77
2022-07-29T11:07:11.704Z,51.33
2022-07-29T11:09:39.698Z,48.50
2022-07-29T11:12:45.172Z,50.52
2022-07-29T11:15:18.415Z,51.01
2022-07-29T11:17:59.469Z,51.21
2022-07-29T11:20:50.137Z,50.25
2022-07-29T11:23:33.753Z,49.14
2022-07-29T11:26:28.294Z,48.84
2022-07-29T11:28:58.861Z,49.14
2022-07-29T11:31:43.922Z,46.71
2022-07-29T11:34:21.075Z,48.58
2022-07-29T11:37:07.757Z,49.42
2022-07-29T11:39:36.815Z,47.05
2022-07-29T11:42:28.210Z,47.65
2022-07-29T11:48:05.288Z,47.18
2022-07-29T11:50:46.276Z,48.04
2022-07-29T11:53:16.083Z,47.80
2022-07-29T11:58:31.784Z,46.92
2022-07-29T12:01:04.572Z,46.95
2022-07-29T12:03:33.562Z,47.33
2022-07-29T12:06:08.056Z,48.13
2022-07-29T12:08:42.049Z,45.78
2022-07-29T12:11:17.491Z,45.70
2022-07-29T12:13:47.515Z,45.19
2022-07-29T12:16:16.337Z,46.06
2022-07-29T12:19:04.165Z,45.22
2022-07-29T12:21:57.023Z,45.53
2022-07-29T12:24:27.397Z,43.90
2022-07-29T12:26:57.019Z,45.91
2022-07-29T12:29:34.892Z,44.30
2022-07-29T12:32:06.428Z,45.14
2022-07-29T12:34:41.985Z,43.43
2022-07-29T12:37:11.243Z,43.73
2022-07-29T12:39:38.324Z,44.81
2022-07-29T12:42:18.526Z,43.76
2022-07-29T12:44:52.586Z,44.70
2022-07-29T12:47:20.677Z,44.34
2022-07-29T12:49:48.956Z,43.80
2022-07-29T12:52:26.026Z,44.80
2022-07-29T12:54:52.887Z,45.45
2022-07-29T12:57:20.372Z,45.86
2022-07-29T13:00:08.894Z,45.93
2022-07-29T13:02:37.505Z,46.14
2022-07-29T13:05:06.031Z,44.40
2022-07-29T13:07:53.979Z,44.88
2022-07-29T13:10:23.904Z,43.72
2022-07-29T13:13:10.438Z,43.81
2022-07-29T13:15:39.391Z,45.48
2022-07-29T13:18:26.732Z,45.25
2022-07-29T13:20:53.593Z,44.86
2022-07-29T13:23:20.404Z,43.97
2022-07-29T13:25:47.250Z,43.75
2022-07-29T13:28:14.254Z,44.46
2022-07-29T13:30:44.434Z,44.58
2022-07-29T13:33:11.954Z,45.15
2022-07-29T13:35:40.042Z,45.74
2022-07-29T13:38:07.141Z,45.19
2022-07-29T13:40:36.373Z,45.63
2022-07-29T13:43:03.323Z,44.70
2022-07-29T13:45:30.948Z,46.16
2022-07-29T13:47:57.769Z,45.54
2022-07-29T13:50:24.811Z,45.90
2022-07-29T13:52:52.287Z,45.83
2022-07-29T13:55:19.639Z,45.66
2022-07-29T13:57:46.535Z,44.53
2022-07-29T14:00:14.484Z,46.62
2022-07-29T14:02:41.394Z,46.68
2022-07-29T14:05:10.834Z,46.90
2022-07-29T14:07:40.110Z,46.61
2022-07-29T14:10:07.616Z,48.32
2022-07-29T14:12:34.566Z,46.15
2022-07-29T14:15:01.827Z,46.63
2022-07-29T14:17:28.664Z,47.07
2022-07-29T14:19:55.516Z,47.06
2022-07-29T14:22:23.089Z,46.75
2022-07-29T14:24:52.461Z,46.28
2022-07-29T14:27:19.524Z,47.01
2022-07-29T14:30:04.426Z,45.34
2022-07-29T14:33:02.033Z,44.44
2022-07-29T14:35:29.112Z,46.50
2022-07-29T14:37:56.029Z,46.06
2022-07-29T14:40:22.928Z,45.88
2022-07-29T14:42:50.249Z,45.91
2022-07-29T14:45:17.067Z,45.79
2022-07-29T14:47:43.998Z,44.36
2022-07-29T14:50:11.373Z,44.92
2022-07-29T14:52:38.258Z,45.65
2022-07-29T14:55:06.041Z,45.28
2022-07-29T14:57:47.108Z,45.18
2022-07-29T15:00:14.238Z,45.23
2022-07-29T15:03:00.805Z,45.37
2022-07-29T15:05:28.459Z,43.88
2022-07-29T15:07:55.436Z,46.14
2022-07-29T15:10:22.378Z,45.25
2022-07-29T15:12:51.671Z,43.96
2022-07-29T15:15:18.694Z,46.01
2022-07-29T15:17:46.735Z,44.62
2022-07-29T15:20:13.741Z,44.39
2022-07-29T15:22:42.369Z,44.38
2022-07-29T15:25:11.412Z,45.87
2022-07-29T15:27:38.294Z,44.37
2022-07-29T15:30:05.700Z,44.45
2022-07-29T15:32:32.512Z,44.13
2022-07-29T15:34:59.533Z,45.66
2022-07-29T15:37:26.771Z,45.47
2022-07-29T15:39:58.289Z,44.92
2022-07-29T15:42:26.755Z,44.95
2022-07-29T15:44:54.418Z,46.03
2022-07-29T15:47:21.292Z,43.72
2022-07-29T15:49:49.479Z,44.93
2022-07-29T15:52:25.837Z,45.42
2022-07-29T15:54:55.292Z,45.07
2022-07-29T15:57:22.326Z,44.59
2022-07-29T15:59:49.164Z,44.73
2022-07-29T16:02:15.994Z,46.03
2022-07-29T16:04:42.798Z,45.21
2022-07-29T16:07:10.054Z,44.61
2022-07-29T16:09:36.885Z,45.85
2022-07-29T16:12:10.563Z,45.11
2022-07-29T16:14:43.806Z,44.95
2022-07-29T16:17:14.592Z,45.06
2022-07-29T16:19:43.190Z,45.56
2022-07-29T16:22:10.311Z,44.34
2022-07-29T16:24:37.261Z,46.00
2022-07-29T16:27:04.414Z,44.98
2022-07-29T16:29:31.361Z,44.90
2022-07-29T16:31:58.272Z,45.39
2022-07-29T16:34:25.117Z,43.62
2022-07-29T16:36:51.976Z,44.99
2022-07-29T16:39:18.775Z,43.37
2022-07-29T16:41:45.667Z,44.75
2022-07-29T16:44:12.560Z,45.33
2022-07-29T16:46:40.866Z,45.60
2022-07-29T16:49:08.583Z,42.73
2022-07-29T16:51:35.517Z,43.10
2022-07-29T16:54:02.536Z,42.57
2022-07-29T16:56:29.458Z,43.73
2022-07-29T16:58:58.154Z,42.59
2022-07-29T17:01:25.111Z,44.35
2022-07-29T17:04:07.017Z,43.71
2022-07-29T17:06:37.963Z,44.23
2022-07-29T17:09:09.921Z,45.30
2022-07-29T17:11:52.781Z,44.28
2022-07-29T17:14:25.260Z,43.77
2022-07-29T17:17:00.908Z,43.71
2022-07-29T17:19:32.744Z,43.25
2022-07-29T17:22:09.452Z,43.75
2022-07-29T17:24:38.936Z,44.07
2022-07-29T17:27:07.198Z,43.68
2022-07-29T17:29:35.143Z,44.76
2022-07-29T17:32:02.199Z,45.22
2022-07-29T17:34:29.074Z,44.59
2022-07-29T17:36:56.846Z,44.11
2022-07-29T17:39:24.130Z,44.73
2022-07-29T17:41:50.952Z,44.68
2022-07-29T17:44:17.757Z,45.22
2022-07-29T17:46:44.862Z,43.63
2022-07-29T17:49:11.898Z,44.99
2022-07-29T17:51:38.871Z,44.55
2022-07-29T17:54:05.789Z,44.59
2022-07-29T17:56:32.707Z,45.71
2022-07-29T17:59:01.620Z,46.05
2022-07-29T18:01:29.163Z,46.25
2022-07-29T18:03:59.825Z,46.14
2022-07-29T18:06:27.212Z,45.74
2022-07-29T18:08:54.204Z,46.74
2022-07-29T18:11:22.033Z,45.73
2022-07-29T18:13:49.081Z,46.86
2022-07-29T18:16:16.020Z,45.42
2022-07-29T18:18:44.315Z,47.32
2022-07-29T18:21:12.020Z,46.76
2022-07-29T18:23:38.865Z,45.98
2022-07-29T18:26:05.702Z,46.08
2022-07-29T18:28:32.953Z,46.18
2022-07-29T18:31:00.706Z,47.17
2022-07-29T18:33:30.446Z,46.66
2022-07-29T18:36:06.114Z,46.64
2022-07-29T18:38:42.388Z,46.41
2022-07-29T18:41:09.599Z,47.98
2022-07-29T18:43:36.494Z,47.23
2022-07-29T18:46:05.494Z,47.35
2022-07-29T18:48:33.565Z,47.36
2022-07-29T18:51:01.178Z,47.90
2022-07-29T18:53:28.214Z,48.49
2022-07-29T18:56:00.156Z,49.60
2022-07-29T18:58:27.383Z,50.50
2022-07-29T19:00:54.238Z,50.61
2022-07-29T19:03:21.214Z,50.03
2022-07-29T19:05:51.654Z,50.83
2022-07-29T19:08:18.508Z,52.41
2022-07-29T19:10:45.814Z,53.15
2022-07-29T19:13:13.640Z,54.18
2022-07-29T19:15:40.993Z,54.53
2022-07-29T19:18:07.877Z,55.29
2022-07-29T19:20:34.778Z,55.62
2022-07-29T19:23:01.591Z,57.11
2022-07-29T19:25:28.793Z,55.92
2022-07-29T19:27:59.221Z,56.70
2022-07-29T19:30:26.161Z,56.68
2022-07-29T19:32:52.997Z,56.51
2022-07-29T19:35:28.563Z,57.13
2022-07-29T19:37:56.645Z,58.01
2022-07-29T19:40:23.783Z,58.47
2022-07-29T19:42:51.799Z,58.93
2022-07-29T19:45:22.382Z,58.96
2022-07-29T19:47:49.764Z,59.95
2022-07-29T19:50:17.337Z,59.98
2022-07-29T19:52:47.256Z,60.12
2022-07-29T19:55:15.173Z,60.74
2022-07-29T19:57:42.100Z,61.54
2022-07-29T20:00:12.072Z,63.02
2022-07-29T20:02:40.348Z,63.33
2022-07-29T20:05:09.589Z,62.58
2022-07-29T20:07:37.621Z,63.51
2022-07-29T20:10:05.372Z,65.82
2022-07-29T20:12:32.260Z,64.94
2022-07-29T20:14:59.427Z,65.19
2022-07-29T20:17:27.804Z,64.96
2022-07-29T20:19:56.377Z,67.82
2022-07-29T20:22:24.440Z,66.61
2022-07-29T20:24:51.898Z,68.28
2022-07-29T20:27:19.256Z,68.72
2022-07-29T20:29:46.396Z,69.96
2022-07-29T20:32:13.503Z,68.71
2022-07-29T20:34:44.588Z,69.32
2022-07-29T20:37:13.494Z,71.48
2022-07-29T20:39:42.783Z,71.90
2022-07-29T20:42:09.701Z,72.31
2022-07-29T20:44:36.971Z,71.46
2022-07-29T20:47:03.859Z,72.85
2022-07-29T20:49:31.727Z,72.28
2022-07-29T20:51:58.633Z,72.69
2022-07-29T20:54:26.918Z,74.71
2022-07-29T20:56:53.860Z,73.69
2022-07-29T20:59:21.376Z,74.05
2022-07-29T21:01:48.744Z,74.05
2022-07-29T21:04:16.769Z,74.40
2022-07-29T21:06:44.228Z,77.26
2022-07-29T21:09:11.507Z,76.52
2022-07-29T21:11:43.633Z,76.92
2022-07-29T21:14:38.553Z,75.83
2022-07-29T21:17:07.356Z,76.45
2022-07-29T21:19:35.139Z,77.86
2022-07-29T21:22:02.257Z,76.83
2022-07-29T21:24:29.301Z,76.50
2022-07-29T21:27:20.700Z,75.30
2022-07-29T21:29:48.457Z,78.23
2022-07-29T21:32:27.613Z,77.00
2022-07-29T21:34:57.997Z,77.46
2022-07-29T21:37:25.426Z,75.37
2022-07-29T21:39:52.300Z,77.10
2022-07-29T21:42:19.391Z,78.06
2022-07-29T21:44:46.255Z,78.71
2022-07-29T21:47:13.163Z,78.94
2022-07-29T21:49:40.013Z,78.69
2022-07-29T21:52:07.906Z,80.17
2022-07-29T21:54:35.272Z,78.90
2022-07-29T21:57:02.427Z,80.33
2022-07-29T21:59:29.831Z,80.85
2022-07-29T22:02:00.875Z,80.89
2022-07-29T22:04:29.278Z,79.88
2022-07-29T22:06:57.177Z,81.76
2022-07-29T22:09:25.107Z,82.29
2022-07-29T22:11:51.946Z,81.27
2022-07-29T22:14:18.867Z,80.44
2022-07-29T22:16:46.632Z,81.99
2022-07-29T22:19:14.539Z,82.20
2022-07-29T22:21:42.088Z,80.88
2022-07-29T22:24:10.405Z,81.68
2022-07-29T22:26:38.326Z,81.61
2022-07-29T22:29:05.547Z,81.24
2022-07-29T22:31:32.425Z,82.15
2022-07-29T22:33:59.414Z,82.49
2022-07-29T22:36:27.057Z,82.26
2022-07-29T22:38:53.858Z,82.67
2022-07-29T22:41:20.681Z,83.36
2022-07-29T22:43:47.512Z,82.98
2022-07-29T22:46:14.376Z,82.49
2022-07-29T22:48:41.300Z,81.65
2022-07-29T22:51:08.324Z,82.05
2022-07-29T22:53:36.066Z,84.00
2022-07-29T22:56:03.087Z,84.52
2022-07-29T22:58:29.909Z,84.09
2022-07-29T23:00:56.860Z,84.31
2022-07-29T23:03:24.018Z,83.49
2022-07-29T23:05:51.974Z,85.03
2022-07-29T23:08:19.416Z,85.22
2022-07-29T23:10:46.742Z,85.01
2022-07-29T23:13:13.977Z,86.02
2022-07-29T23:15:41.738Z,85.68
2022-07-29T23:18:08.759Z,84.70
2022-07-29T23:20:36.390Z,85.01
2022-07-29T23:23:03.353Z,84.44
2022-07-29T23:25:30.385Z,85.98
2022-07-29T23:27:57.311Z,84.46
2022-07-29T23:30:24.546Z,83.83
2022-07-29T23:32:51.464Z,85.29
2022-07-29T23:35:18.508Z,86.23
2022-07-29T23:37:45.382Z,85.63
2022-07-29T23:40:14.687Z,85.14
2022-07-29T23:42:42.770Z,84.63
2022-07-29T23:45:11.580Z,85.59
2022-07-29T23:47:38.777Z,85.69
2022-07-29T23:50:07.095Z,85.90
2022-07-29T23:52:34.000Z,85.84
2022-07-29T23:55:36.480Z,85.75
2022-07-29T23:57:50.404Z,86.21
